PWSweather.com
Personal Weather Stations
Station Observations
SAGINAW
Brevator Township, Saginaw, MN 55779

Brevator TownshipSaginaw, MN 55779

Lat: 46.8456781036821, Lon: -92.4693220853806

Elevation: 1332

Station Type: Davis Vantage Vue

http://saginawmnwx.bplaced.net/index.php

Latest ConditionsUpdated 3:50:00 PM CDT Wednesday, Apr 24, 2019
Currently Today's Max Today's Min Today's Average
Temperature 71.5°F21.9°C 71.5°F21.9°C 41.3°F5.2°C 50.6°F10.3°C
Dew Point 43.1°F6.2°C 43.8°F6.6°C 31.2°F-0.4°C 37.1°F2.8°C
Winds 7.0 mph SSW11.3 kmh SSW 13.0 mph -20.9 kmh - - 4.8 mph 7.7 kmh
Wind Gusts 14.0 mph22.5 kmh 25.0 mph40.2 kmh - -
Humidity 36% 82% 36% 62%
Pressure 29.64 in1003.7 mb 29.94 in1013.9 mb 29.64 in1003.7 mb -
Precipitation - 0.01 in0.3 mm - -
Hour Temp Dew Point Humidity Winds Wind Gusts Pressure Precip Precip Rate Daily Precip Total
03:50 PM 71.5°F21.9°C 43.1°F6.2°C 36% 7.0 mph SSW11.3 kmh SSW 14.0 mph22.5 kmh 29.64 in1003.7 mb 0.00 in0.0 mm 0.00 in0.0 mm 0.01 in0.3 mm
03:40 PM 70.8°F21.6°C 42.5°F5.8°C 36% 6.0 mph SW9.7 kmh SW 15.0 mph24.1 kmh 29.64 in1003.7 mb 0.00 in0.0 mm 0.00 in0.0 mm 0.01 in0.3 mm
03:30 PM 70.5°F21.4°C 42.2°F5.7°C 36% 8.0 mph SSW12.9 kmh SSW 18.0 mph29.0 kmh 29.65 in1004.1 mb 0.00 in0.0 mm 0.00 in0.0 mm 0.01 in0.3 mm
03:20 PM 70.3°F21.3°C 42.1°F5.6°C 36% 5.0 mph SW8.0 kmh SW 17.0 mph27.4 kmh 29.64 in1003.7 mb 0.00 in0.0 mm 0.00 in0.0 mm 0.01 in0.3 mm
03:10 PM 70.2°F21.2°C 42.7°F5.9°C 37% 7.0 mph SSW11.3 kmh SSW 14.0 mph22.5 kmh 29.65 in1004.1 mb 0.00 in0.0 mm 0.00 in0.0 mm 0.01 in0.3 mm
03:00 PM 70.0°F21.1°C 42.5°F5.8°C 37% 5.0 mph SW8.0 kmh SW 16.0 mph25.7 kmh 29.66 in1004.4 mb 0.00 in0.0 mm 0.00 in0.0 mm 0.01 in0.3 mm
02:50 PM 69.6°F20.9°C 42.9°F6.1°C 38% 7.0 mph SW11.3 kmh SW 16.0 mph25.7 kmh 29.66 in1004.4 mb 0.00 in0.0 mm 0.00 in0.0 mm 0.01 in0.3 mm
02:40 PM 69.1°F20.6°C 43.8°F6.6°C 40% 7.0 mph SW11.3 kmh SW 18.0 mph29.0 kmh 29.66 in1004.4 mb 0.00 in0.0 mm 0.00 in0.0 mm 0.01 in0.3 mm
02:30 PM 67.8°F19.9°C 41.9°F5.5°C 39% 9.0 mph SW14.5 kmh SW 18.0 mph29.0 kmh 29.67 in1004.7 mb 0.00 in0.0 mm 0.00 in0.0 mm 0.01 in0.3 mm
02:20 PM 67.5°F19.7°C 41.0°F5.0°C 38% 9.0 mph SSW14.5 kmh SSW 18.0 mph29.0 kmh 29.67 in1004.7 mb 0.00 in0.0 mm 0.00 in0.0 mm 0.01 in0.3 mm
02:10 PM 66.7°F19.3°C 41.6°F5.3°C 40% 10.0 mph SSW16.1 kmh SSW 23.0 mph37.0 kmh 29.67 in1004.7 mb 0.00 in0.0 mm 0.00 in0.0 mm 0.01 in0.3 mm
02:00 PM 66.8°F19.3°C 41.0°F5.0°C 39% 9.0 mph SSW14.5 kmh SSW 17.0 mph27.4 kmh 29.67 in1004.7 mb 0.00 in0.0 mm 0.00 in0.0 mm 0.01 in0.3 mm
01:50 PM 66.5°F19.2°C 40.1°F4.5°C 38% 8.0 mph SSW12.9 kmh SSW 16.0 mph25.7 kmh 29.68 in1005.1 mb 0.00 in0.0 mm 0.00 in0.0 mm 0.01 in0.3 mm
01:40 PM 65.2°F18.4°C 40.9°F4.9°C 41% 9.0 mph SSW14.5 kmh SSW 20.0 mph32.2 kmh 29.68 in1005.1 mb 0.00 in0.0 mm 0.00 in0.0 mm 0.01 in0.3 mm
01:30 PM 63.7°F17.6°C 41.4°F5.2°C 44% 10.0 mph SSW16.1 kmh SSW 22.0 mph35.4 kmh 29.69 in1005.4 mb 0.00 in0.0 mm 0.00 in0.0 mm 0.01 in0.3 mm
01:20 PM 63.9°F17.7°C 40.3°F4.6°C 42% 9.0 mph S14.5 kmh S 20.0 mph32.2 kmh 29.69 in1005.4 mb 0.00 in0.0 mm 0.00 in0.0 mm 0.01 in0.3 mm
01:10 PM 62.3°F16.8°C 39.5°F4.2°C 43% 11.0 mph SW17.7 kmh SW 23.0 mph37.0 kmh 29.70 in1005.8 mb 0.00 in0.0 mm 0.00 in0.0 mm 0.01 in0.3 mm
01:00 PM 61.8°F16.6°C 39.6°F4.2°C 44% 13.0 mph SW20.9 kmh SW 25.0 mph40.2 kmh 29.69 in1005.4 mb 0.00 in0.0 mm 0.00 in0.0 mm 0.01 in0.3 mm
12:50 PM 61.0°F16.1°C 38.9°F3.8°C 44% 12.0 mph SW19.3 kmh SW 24.0 mph38.6 kmh 29.70 in1005.8 mb 0.00 in0.0 mm 0.00 in0.0 mm 0.01 in0.3 mm
12:40 PM 60.6°F15.9°C 39.1°F3.9°C 45% 12.0 mph SW19.3 kmh SW 20.0 mph32.2 kmh 29.70 in1005.8 mb 0.00 in0.0 mm 0.00 in0.0 mm 0.01 in0.3 mm
12:20 PM 59.9°F15.5°C 39.6°F4.2°C 47% 9.0 mph SSW14.5 kmh SSW 18.0 mph29.0 kmh 29.71 in1006.1 mb 0.00 in0.0 mm 0.00 in0.0 mm 0.01 in0.3 mm
12:10 PM 58.9°F14.9°C 40.3°F4.6°C 50% 8.0 mph SSW12.9 kmh SSW 16.0 mph25.7 kmh 29.71 in1006.1 mb 0.00 in0.0 mm 0.00 in0.0 mm 0.01 in0.3 mm
12:00 PM 57.6°F14.2°C 39.1°F3.9°C 50% 9.0 mph SSW14.5 kmh SSW 15.0 mph24.1 kmh 29.72 in1006.4 mb 0.00 in0.0 mm 0.00 in0.0 mm 0.01 in0.3 mm
11:50 AM 56.7°F13.7°C 39.7°F4.3°C 53% 8.0 mph SSW12.9 kmh SSW 13.0 mph20.9 kmh 29.72 in1006.4 mb 0.00 in0.0 mm 0.00 in0.0 mm 0.01 in0.3 mm
11:40 AM 56.6°F13.7°C 39.2°F4.0°C 52% 8.0 mph SSW12.9 kmh SSW 17.0 mph27.4 kmh 29.74 in1007.1 mb 0.00 in0.0 mm 0.00 in0.0 mm 0.01 in0.3 mm
11:30 AM 56.1°F13.4°C 39.2°F4.0°C 53% 7.0 mph SSW11.3 kmh SSW 16.0 mph25.7 kmh 29.74 in1007.1 mb 0.00 in0.0 mm 0.00 in0.0 mm 0.01 in0.3 mm
11:20 AM 55.7°F13.2°C 39.3°F4.1°C 54% 8.0 mph SSW12.9 kmh SSW 19.0 mph30.6 kmh 29.74 in1007.1 mb 0.00 in0.0 mm 0.00 in0.0 mm 0.01 in0.3 mm
11:10 AM 55.7°F13.2°C 39.3°F4.1°C 54% 9.0 mph SSW14.5 kmh SSW 19.0 mph30.6 kmh 29.74 in1007.1 mb 0.00 in0.0 mm 0.00 in0.0 mm 0.01 in0.3 mm
11:00 AM 55.3°F12.9°C 39.4°F4.1°C 55% 9.0 mph SSW14.5 kmh SSW 16.0 mph25.7 kmh 29.74 in1007.1 mb 0.00 in0.0 mm 0.00 in0.0 mm 0.01 in0.3 mm
10:50 AM 55.1°F12.8°C 39.7°F4.3°C 56% 8.0 mph S12.9 kmh S 18.0 mph29.0 kmh 29.75 in1007.5 mb 0.00 in0.0 mm 0.00 in0.0 mm 0.01 in0.3 mm
10:40 AM 55.1°F12.8°C 39.7°F4.3°C 56% 9.0 mph S14.5 kmh S 15.0 mph24.1 kmh 29.75 in1007.5 mb 0.00 in0.0 mm 0.00 in0.0 mm 0.01 in0.3 mm
10:30 AM 54.4°F12.4°C 39.9°F4.4°C 58% 8.0 mph SSW12.9 kmh SSW 15.0 mph24.1 kmh 29.75 in1007.5 mb 0.00 in0.0 mm 0.00 in0.0 mm 0.01 in0.3 mm
10:20 AM 53.6°F12.0°C 40.0°F4.4°C 60% 6.0 mph SSW9.7 kmh SSW 12.0 mph19.3 kmh 29.76 in1007.8 mb 0.00 in0.0 mm 0.00 in0.0 mm 0.01 in0.3 mm
10:10 AM 53.2°F11.8°C 40.1°F4.5°C 61% 5.0 mph SSW8.0 kmh SSW 10.0 mph16.1 kmh 29.76 in1007.8 mb 0.00 in0.0 mm 0.00 in0.0 mm 0.01 in0.3 mm
10:00 AM 52.6°F11.4°C 39.9°F4.4°C 62% 5.0 mph SSW8.0 kmh SSW 12.0 mph19.3 kmh 29.77 in1008.1 mb 0.00 in0.0 mm 0.00 in0.0 mm 0.01 in0.3 mm
09:50 AM 51.8°F11.0°C 40.0°F4.4°C 64% 6.0 mph S9.7 kmh S 11.0 mph17.7 kmh 29.77 in1008.1 mb 0.00 in0.0 mm 0.00 in0.0 mm 0.01 in0.3 mm
09:40 AM 50.5°F10.3°C 40.7°F4.8°C 69% 5.0 mph S8.0 kmh S 10.0 mph16.1 kmh 29.77 in1008.1 mb 0.00 in0.0 mm 0.00 in0.0 mm 0.01 in0.3 mm
09:30 AM 48.8°F9.3°C 40.9°F4.9°C 74% 4.0 mph S6.4 kmh S 7.0 mph11.3 kmh 29.77 in1008.1 mb 0.00 in0.0 mm 0.00 in0.0 mm 0.01 in0.3 mm
09:20 AM 47.8°F8.8°C 39.9°F4.4°C 74% 3.0 mph S4.8 kmh S 6.0 mph9.7 kmh 29.77 in1008.1 mb 0.00 in0.0 mm 0.00 in0.0 mm 0.01 in0.3 mm
09:10 AM 47.1°F8.4°C 39.9°F4.4°C 76% 3.0 mph SSE4.8 kmh SSE 6.0 mph9.7 kmh 29.79 in1008.8 mb 0.00 in0.0 mm 0.00 in0.0 mm 0.01 in0.3 mm
09:00 AM 46.6°F8.1°C 39.4°F4.1°C 76% 3.0 mph SSE4.8 kmh SSE 6.0 mph9.7 kmh 29.79 in1008.8 mb 0.00 in0.0 mm 0.00 in0.0 mm 0.01 in0.3 mm
08:50 AM 46.2°F7.9°C 39.4°F4.1°C 77% 2.0 mph SSE3.2 kmh SSE 6.0 mph9.7 kmh 29.79 in1008.8 mb 0.00 in0.0 mm 0.00 in0.0 mm 0.01 in0.3 mm
08:40 AM 46.5°F8.1°C 39.3°F4.1°C 76% 5.0 mph S8.0 kmh S 9.0 mph14.5 kmh 29.80 in1009.1 mb 0.00 in0.0 mm 0.00 in0.0 mm 0.01 in0.3 mm
08:30 AM 46.6°F8.1°C 38.8°F3.8°C 74% 5.0 mph SSE8.0 kmh SSE 9.0 mph14.5 kmh 29.80 in1009.1 mb 0.00 in0.0 mm 0.00 in0.0 mm 0.01 in0.3 mm
08:20 AM 46.7°F8.2°C 38.1°F3.4°C 72% 5.0 mph S8.0 kmh S 10.0 mph16.1 kmh 29.81 in1009.5 mb 0.00 in0.0 mm 0.00 in0.0 mm 0.01 in0.3 mm
08:10 AM 46.5°F8.1°C 38.3°F3.5°C 73% 6.0 mph S9.7 kmh S 10.0 mph16.1 kmh 29.81 in1009.5 mb 0.00 in0.0 mm 0.00 in0.0 mm 0.01 in0.3 mm
08:00 AM 46.0°F7.8°C 38.2°F3.4°C 74% 6.0 mph S9.7 kmh S 9.0 mph14.5 kmh 29.81 in1009.5 mb 0.01 in0.3 mm 0.00 in0.0 mm 0.01 in0.3 mm
07:50 AM 45.5°F7.5°C 38.0°F3.3°C 75% 6.0 mph SSE9.7 kmh SSE 10.0 mph16.1 kmh 29.81 in1009.5 mb 0.01 in0.3 mm 0.00 in0.0 mm 0.01 in0.3 mm
07:40 AM 44.7°F7.1°C 38.3°F3.5°C 78% 5.0 mph S8.0 kmh S 10.0 mph16.1 kmh 29.82 in1009.8 mb 0.01 in0.3 mm 0.00 in0.0 mm 0.01 in0.3 mm
07:30 AM 43.9°F6.6°C 38.1°F3.4°C 80% 3.0 mph SSE4.8 kmh SSE 6.0 mph9.7 kmh 29.83 in1010.2 mb 0.01 in0.3 mm 0.00 in0.0 mm 0.01 in0.3 mm
07:20 AM 43.3°F6.3°C 37.5°F3.1°C 80% 3.0 mph SSE4.8 kmh SSE 6.0 mph9.7 kmh 29.83 in1010.2 mb 0.01 in0.3 mm 0.00 in0.0 mm 0.01 in0.3 mm
07:10 AM 43.1°F6.2°C 37.3°F2.9°C 80% 3.0 mph SSE4.8 kmh SSE 6.0 mph9.7 kmh 29.83 in1010.2 mb 0.01 in0.3 mm 0.06 in1.5 mm 0.01 in0.3 mm
07:00 AM 42.9°F6.1°C 37.5°F3.1°C 81% 3.0 mph SSE4.8 kmh SSE 6.0 mph9.7 kmh 29.83 in1010.2 mb 0.00 in0.0 mm 0.00 in0.0 mm 0.00 in0.0 mm
06:50 AM 42.5°F5.8°C 37.1°F2.8°C 81% 4.0 mph S6.4 kmh S 6.0 mph9.7 kmh 29.84 in1010.5 mb 0.00 in0.0 mm 0.00 in0.0 mm 0.00 in0.0 mm
06:40 AM 42.2°F5.7°C 36.8°F2.7°C 81% 3.0 mph S4.8 kmh S 5.0 mph8.0 kmh 29.84 in1010.5 mb 0.00 in0.0 mm 0.00 in0.0 mm 0.00 in0.0 mm
06:30 AM 41.8°F5.4°C 36.7°F2.6°C 82% 2.0 mph S3.2 kmh S 4.0 mph6.4 kmh 29.85 in1010.8 mb 0.00 in0.0 mm 0.00 in0.0 mm 0.00 in0.0 mm
06:20 AM 41.7°F5.4°C 36.3°F2.4°C 81% 2.0 mph S3.2 kmh S 4.0 mph6.4 kmh 29.84 in1010.5 mb 0.00 in0.0 mm 0.00 in0.0 mm 0.00 in0.0 mm
06:10 AM 41.7°F5.4°C 36.0°F2.2°C 80% 2.0 mph S3.2 kmh S 5.0 mph8.0 kmh 29.85 in1010.8 mb 0.00 in0.0 mm 0.00 in0.0 mm 0.00 in0.0 mm
06:00 AM 41.7°F5.4°C 36.0°F2.2°C 80% 2.0 mph S3.2 kmh S 5.0 mph8.0 kmh 29.85 in1010.8 mb 0.00 in0.0 mm 0.00 in0.0 mm 0.00 in0.0 mm
05:50 AM 41.6°F5.3°C 35.9°F2.2°C 80% 1.0 mph SSE1.6 kmh SSE 3.0 mph4.8 kmh 29.84 in1010.5 mb 0.00 in0.0 mm 0.00 in0.0 mm 0.00 in0.0 mm
05:40 AM 41.6°F5.3°C 35.9°F2.2°C 80% 2.0 mph SSE3.2 kmh SSE 5.0 mph8.0 kmh 29.85 in1010.8 mb 0.00 in0.0 mm 0.00 in0.0 mm 0.00 in0.0 mm
05:30 AM 41.6°F5.3°C 35.9°F2.2°C 80% 2.0 mph SSE3.2 kmh SSE 4.0 mph6.4 kmh 29.85 in1010.8 mb 0.00 in0.0 mm 0.00 in0.0 mm 0.00 in0.0 mm
05:20 AM 41.5°F5.3°C 35.8°F2.1°C 80% 2.0 mph S3.2 kmh S 5.0 mph8.0 kmh 29.86 in1011.2 mb 0.00 in0.0 mm 0.00 in0.0 mm 0.00 in0.0 mm
05:10 AM 41.5°F5.3°C 35.8°F2.1°C 80% 2.0 mph S3.2 kmh S 5.0 mph8.0 kmh 29.86 in1011.2 mb 0.00 in0.0 mm 0.00 in0.0 mm 0.00 in0.0 mm
05:00 AM 41.4°F5.2°C 35.4°F1.9°C 79% 3.0 mph S4.8 kmh S 5.0 mph8.0 kmh 29.86 in1011.2 mb 0.00 in0.0 mm 0.00 in0.0 mm 0.00 in0.0 mm
04:50 AM 41.3°F5.2°C 35.0°F1.7°C 78% 2.0 mph SSE3.2 kmh SSE 4.0 mph6.4 kmh 29.86 in1011.2 mb 0.00 in0.0 mm 0.00 in0.0 mm 0.00 in0.0 mm
04:40 AM 41.4°F5.2°C 34.4°F1.3°C 76% 2.0 mph SSE3.2 kmh SSE 5.0 mph8.0 kmh 29.87 in1011.5 mb 0.00 in0.0 mm 0.00 in0.0 mm 0.00 in0.0 mm
04:30 AM 41.3°F5.2°C 34.0°F1.1°C 75% 2.0 mph S3.2 kmh S 4.0 mph6.4 kmh 29.87 in1011.5 mb 0.00 in0.0 mm 0.00 in0.0 mm 0.00 in0.0 mm
04:20 AM 41.4°F5.2°C 33.4°F0.8°C 73% 2.0 mph S3.2 kmh S 4.0 mph6.4 kmh 29.87 in1011.5 mb 0.00 in0.0 mm 0.00 in0.0 mm 0.00 in0.0 mm
04:10 AM 41.5°F5.3°C 33.1°F0.6°C 72% 1.0 mph S1.6 kmh S 3.0 mph4.8 kmh 29.88 in1011.9 mb 0.00 in0.0 mm 0.00 in0.0 mm 0.00 in0.0 mm
04:00 AM 41.6°F5.3°C 33.2°F0.7°C 72% 1.0 mph S1.6 kmh S 3.0 mph4.8 kmh 29.88 in1011.9 mb 0.00 in0.0 mm 0.00 in0.0 mm 0.00 in0.0 mm
03:50 AM 41.8°F5.4°C 33.1°F0.6°C 71% 2.0 mph S3.2 kmh S 4.0 mph6.4 kmh 29.88 in1011.9 mb 0.00 in0.0 mm 0.00 in0.0 mm 0.00 in0.0 mm
03:40 AM 42.2°F5.7°C 32.4°F0.2°C 68% 2.0 mph SSE3.2 kmh SSE 4.0 mph6.4 kmh 29.88 in1011.9 mb 0.00 in0.0 mm 0.00 in0.0 mm 0.00 in0.0 mm
03:30 AM 42.5°F5.8°C 32.7°F0.4°C 68% 1.0 mph SSE1.6 kmh SSE 3.0 mph4.8 kmh 29.89 in1012.2 mb 0.00 in0.0 mm 0.00 in0.0 mm 0.00 in0.0 mm
03:20 AM 42.7°F5.9°C 32.5°F0.3°C 67% 1.0 mph SSE1.6 kmh SSE 3.0 mph4.8 kmh 29.89 in1012.2 mb 0.00 in0.0 mm 0.00 in0.0 mm 0.00 in0.0 mm
03:10 AM 42.7°F5.9°C 32.1°F0.1°C 66% 1.0 mph SSE1.6 kmh SSE 3.0 mph4.8 kmh 29.89 in1012.2 mb 0.00 in0.0 mm 0.00 in0.0 mm 0.00 in0.0 mm
03:00 AM 42.8°F6.0°C 32.2°F0.1°C 66% 1.0 mph SSE1.6 kmh SSE 3.0 mph4.8 kmh 29.89 in1012.2 mb 0.00 in0.0 mm 0.00 in0.0 mm 0.00 in0.0 mm
02:50 AM 42.9°F6.1°C 31.9°F-0.1°C 65% 2.0 mph S3.2 kmh S 5.0 mph8.0 kmh 29.89 in1012.2 mb 0.00 in0.0 mm 0.00 in0.0 mm 0.00 in0.0 mm
02:40 AM 43.1°F6.2°C 31.7°F-0.2°C 64% 4.0 mph S6.4 kmh S 6.0 mph9.7 kmh 29.90 in1012.5 mb 0.00 in0.0 mm 0.00 in0.0 mm 0.00 in0.0 mm
02:30 AM 43.4°F6.3°C 31.6°F-0.2°C 63% 4.0 mph S6.4 kmh S 7.0 mph11.3 kmh 29.90 in1012.5 mb 0.00 in0.0 mm 0.00 in0.0 mm 0.00 in0.0 mm
02:20 AM 43.7°F6.5°C 31.9°F-0.1°C 63% 3.0 mph S4.8 kmh S 7.0 mph11.3 kmh 29.91 in1012.9 mb 0.00 in0.0 mm 0.00 in0.0 mm 0.00 in0.0 mm
02:10 AM 44.1°F6.7°C 32.3°F0.2°C 63% 2.0 mph SSE3.2 kmh SSE 6.0 mph9.7 kmh 29.91 in1012.9 mb 0.00 in0.0 mm 0.00 in0.0 mm 0.00 in0.0 mm
02:00 AM 44.3°F6.8°C 32.9°F0.5°C 64% 2.0 mph SE3.2 kmh SE 6.0 mph9.7 kmh 29.91 in1012.9 mb 0.00 in0.0 mm 0.00 in0.0 mm 0.00 in0.0 mm
01:50 AM 44.1°F6.7°C 32.3°F0.2°C 63% 1.0 mph SSE1.6 kmh SSE 4.0 mph6.4 kmh 29.91 in1012.9 mb 0.00 in0.0 mm 0.00 in0.0 mm 0.00 in0.0 mm
01:40 AM 44.0°F6.7°C 32.2°F0.1°C 63% 2.0 mph SSE3.2 kmh SSE 5.0 mph8.0 kmh 29.91 in1012.9 mb 0.00 in0.0 mm 0.00 in0.0 mm 0.00 in0.0 mm
01:30 AM 43.8°F6.6°C 31.6°F-0.2°C 62% 3.0 mph S4.8 kmh S 6.0 mph9.7 kmh 29.92 in1013.2 mb 0.00 in0.0 mm 0.00 in0.0 mm 0.00 in0.0 mm
01:20 AM 43.7°F6.5°C 31.9°F-0.1°C 63% 3.0 mph S4.8 kmh S 5.0 mph8.0 kmh 29.92 in1013.2 mb 0.00 in0.0 mm 0.00 in0.0 mm 0.00 in0.0 mm
01:10 AM 43.7°F6.5°C 31.5°F-0.3°C 62% 3.0 mph S4.8 kmh S 6.0 mph9.7 kmh 29.92 in1013.2 mb 0.00 in0.0 mm 0.00 in0.0 mm 0.00 in0.0 mm
01:00 AM 43.9°F6.6°C 31.3°F-0.4°C 61% 3.0 mph SSW4.8 kmh SSW 6.0 mph9.7 kmh 29.93 in1013.5 mb 0.00 in0.0 mm 0.00 in0.0 mm 0.00 in0.0 mm
12:50 AM 44.2°F6.8°C 31.2°F-0.4°C 60% 3.0 mph SE4.8 kmh SE 7.0 mph11.3 kmh 29.92 in1013.2 mb 0.00 in0.0 mm 0.00 in0.0 mm 0.00 in0.0 mm
12:40 AM 44.7°F7.1°C 32.1°F0.1°C 61% 2.0 mph SSE3.2 kmh SSE 6.0 mph9.7 kmh 29.93 in1013.5 mb 0.00 in0.0 mm 0.00 in0.0 mm 0.00 in0.0 mm
12:30 AM 44.9°F7.2°C 32.3°F0.2°C 61% 2.0 mph S3.2 kmh S 5.0 mph8.0 kmh 29.93 in1013.5 mb 0.00 in0.0 mm 0.00 in0.0 mm 0.00 in0.0 mm
12:20 AM 45.1°F7.3°C 32.0°F0.0°C 60% 1.0 mph SSE1.6 kmh SSE 4.0 mph6.4 kmh 29.93 in1013.5 mb 0.00 in0.0 mm 0.00 in0.0 mm 0.00 in0.0 mm
12:10 AM 45.1°F7.3°C 32.0°F0.0°C 60% 2.0 mph SE3.2 kmh SE 4.0 mph6.4 kmh 29.94 in1013.9 mb 0.00 in0.0 mm 0.00 in0.0 mm 0.00 in0.0 mm
12:00 AM 44.8°F7.1°C 31.8°F-0.1°C 60% 2.0 mph SE3.2 kmh SE 5.0 mph8.0 kmh 29.93 in1013.5 mb 0.00 in0.0 mm 0.00 in0.0 mm 0.01 in0.3 mm